createdAt,value
2018-04-02T00:00:57.680Z,99.90
2018-04-02T00:03:26.304Z,99.90
2018-04-02T00:05:54.085Z,99.90
2018-04-02T00:08:22.381Z,99.90
2018-04-02T00:10:49.914Z,99.90
2018-04-02T00:13:17.413Z,99.90
2018-04-02T00:15:44.945Z,99.90
2018-04-02T00:18:12.438Z,99.90
2018-04-02T00:20:39.946Z,99.90
2018-04-02T00:23:07.654Z,99.90
2018-04-02T00:25:35.232Z,99.90
2018-04-02T00:28:02.872Z,99.90
2018-04-02T00:30:30.487Z,99.90
2018-04-02T00:32:58.103Z,99.90
2018-04-02T00:35:25.635Z,99.90
2018-04-02T00:37:54.566Z,99.90
2018-04-02T00:40:23.059Z,99.90
2018-04-02T00:42:50.668Z,99.90
2018-04-02T00:45:18.393Z,99.90
2018-04-02T00:47:46.921Z,99.90
2018-04-02T00:50:14.561Z,99.90
2018-04-02T00:52:42.157Z,99.90
2018-04-02T00:55:09.712Z,99.90
2018-04-02T00:57:37.344Z,99.90
2018-04-02T01:00:04.874Z,99.90
2018-04-02T01:02:33.628Z,99.90
2018-04-02T01:05:01.259Z,99.90
2018-04-02T01:07:31.331Z,99.90
2018-04-02T01:09:58.952Z,99.90
2018-04-02T01:12:26.531Z,99.90
2018-04-02T01:14:54.083Z,99.90
2018-04-02T01:17:21.612Z,99.90
2018-04-02T01:19:49.121Z,99.90
2018-04-02T01:22:16.622Z,99.90
2018-04-02T01:24:44.156Z,99.90
2018-04-02T01:27:17.334Z,99.90
2018-04-02T01:29:45.344Z,99.90
2018-04-02T01:32:13.065Z,99.90
2018-04-02T01:34:41.535Z,99.90
2018-04-02T01:37:10.190Z,99.90
2018-04-02T01:39:38.874Z,99.90
2018-04-02T01:42:10.602Z,99.90
2018-04-02T01:44:38.346Z,99.90
2018-04-02T01:47:08.774Z,99.90
2018-04-02T01:49:36.735Z,99.90
2018-04-02T01:52:06.631Z,99.90
2018-04-02T01:54:34.352Z,99.90
2018-04-02T01:57:03.711Z,99.90
2018-04-02T01:59:31.431Z,99.90
2018-04-02T02:01:58.977Z,99.90
2018-04-02T02:04:26.634Z,99.90
2018-04-02T02:06:54.324Z,99.90
2018-04-02T02:09:22.702Z,99.90
2018-04-02T02:11:50.225Z,99.90
2018-04-02T02:14:17.748Z,99.90
2018-04-02T02:16:45.390Z,99.90
2018-04-02T02:19:12.993Z,99.90
2018-04-02T02:21:40.628Z,99.90
2018-04-02T02:24:08.286Z,99.90
2018-04-02T02:26:36.207Z,99.90
2018-04-02T02:29:03.881Z,99.90
2018-04-02T02:31:32.578Z,99.90
2018-04-02T02:34:00.379Z,99.90
2018-04-02T02:36:28.612Z,99.90
2018-04-02T02:38:56.203Z,99.90
2018-04-02T02:41:24.632Z,99.90
2018-04-02T02:43:52.304Z,99.90
2018-04-02T02:46:19.914Z,99.90
2018-04-02T02:48:48.301Z,99.90
2018-04-02T02:51:16.325Z,99.90
2018-04-02T02:53:43.986Z,99.90
2018-04-02T02:56:11.482Z,99.90
2018-04-02T02:58:39.862Z,99.90
2018-04-02T03:01:07.663Z,99.90
2018-04-02T03:03:35.251Z,99.90
2018-04-02T03:06:02.966Z,99.90
2018-04-02T03:08:30.507Z,99.90
2018-04-02T03:10:58.012Z,99.90
2018-04-02T03:13:25.573Z,99.90
2018-04-02T03:15:53.096Z,99.90
2018-04-02T03:18:20.742Z,99.90
2018-04-02T03:20:48.271Z,99.90
2018-04-02T03:23:15.762Z,99.90
2018-04-02T03:25:44.753Z,99.90
2018-04-02T03:28:12.367Z,99.90
2018-04-02T03:30:39.989Z,99.90
2018-04-02T03:33:07.576Z,99.90
2018-04-02T03:35:35.175Z,99.90
2018-04-02T03:38:02.966Z,99.90
2018-04-02T03:40:30.569Z,99.90
2018-04-02T03:42:58.056Z,99.90
2018-04-02T03:45:26.436Z,99.90
2018-04-02T03:47:54.739Z,99.90
2018-04-02T03:50:22.391Z,99.90
2018-04-02T03:52:51.083Z,99.90
2018-04-02T03:55:18.808Z,99.90
2018-04-02T03:57:46.477Z,99.90
2018-04-02T04:00:15.404Z,99.90
2018-04-02T04:02:43.548Z,99.90
2018-04-02T04:05:11.993Z,99.90
2018-04-02T04:07:39.576Z,99.90
2018-04-02T04:10:07.171Z,99.90
2018-04-02T04:12:34.682Z,99.90
2018-04-02T04:15:02.167Z,99.90
2018-04-02T04:17:29.631Z,99.90
2018-04-02T04:19:57.107Z,99.90
2018-04-02T04:22:24.603Z,99.90
2018-04-02T04:24:52.237Z,99.90
2018-04-02T04:27:19.848Z,99.90
2018-04-02T04:29:48.159Z,99.90
2018-04-02T04:32:15.677Z,99.90
2018-04-02T04:34:43.176Z,99.90
2018-04-02T04:37:10.699Z,99.90
2018-04-02T04:39:38.202Z,99.90
2018-04-02T04:42:05.735Z,99.90
2018-04-02T04:44:33.975Z,99.90
2018-04-02T04:47:01.484Z,99.90
2018-04-02T04:49:28.972Z,99.90
2018-04-02T04:51:56.482Z,99.90
2018-04-02T04:54:23.965Z,99.90
2018-04-02T04:56:51.446Z,99.90
2018-04-02T04:59:20.735Z,99.90
2018-04-02T05:01:48.330Z,99.90
2018-04-02T05:04:15.976Z,99.90
2018-04-02T05:06:43.642Z,99.90
2018-04-02T05:09:11.582Z,99.90
2018-04-02T05:11:39.273Z,99.90
2018-04-02T05:14:06.828Z,99.90
2018-04-02T05:16:35.139Z,99.90
2018-04-02T05:19:03.467Z,99.90
2018-04-02T05:21:31.368Z,99.90
2018-04-02T05:23:58.954Z,99.90
2018-04-02T05:26:26.583Z,99.90
2018-04-02T05:28:54.330Z,99.90
2018-04-02T05:31:21.885Z,99.90
2018-04-02T05:33:49.437Z,99.90
2018-04-02T05:36:17.224Z,99.90
2018-04-02T05:38:44.774Z,99.90
2018-04-02T05:41:12.286Z,99.90
2018-04-02T05:43:39.809Z,99.90
2018-04-02T05:46:07.428Z,99.90
2018-04-02T05:48:35.026Z,99.90
2018-04-02T05:51:02.577Z,99.90
2018-04-02T05:53:30.777Z,99.90
2018-04-02T05:55:58.283Z,99.90
2018-04-02T05:58:25.809Z,99.90
2018-04-02T06:00:54.077Z,99.90
2018-04-02T06:03:21.751Z,99.90
2018-04-02T06:05:50.121Z,99.90
2018-04-02T06:08:17.957Z,99.90
2018-04-02T06:10:49.259Z,99.90
2018-04-02T06:13:16.815Z,99.90
2018-04-02T06:15:44.344Z,99.90
2018-04-02T06:18:11.869Z,99.90
2018-04-02T06:20:39.338Z,99.90
2018-04-02T06:23:06.834Z,99.90
2018-04-02T06:25:34.384Z,99.90
2018-04-02T06:28:02.670Z,99.90
2018-04-02T06:30:30.171Z,99.90
2018-04-02T06:32:58.767Z,99.90
2018-04-02T06:35:26.532Z,99.90
2018-04-02T06:37:54.325Z,99.90
2018-04-02T06:40:21.854Z,99.90
2018-04-02T06:42:49.513Z,99.90
2018-04-02T06:45:17.105Z,99.90
2018-04-02T06:47:46.592Z,99.90
2018-04-02T06:50:17.128Z,99.90
2018-04-02T06:52:44.889Z,99.90
2018-04-02T06:55:13.275Z,99.90
2018-04-02T06:57:41.059Z,99.90
2018-04-02T07:00:08.568Z,99.90
2018-04-02T07:02:36.065Z,99.90
2018-04-02T07:05:11.992Z,99.90
2018-04-02T07:07:39.741Z,99.90
2018-04-02T07:10:08.257Z,99.90
2018-04-02T07:12:37.360Z,99.90
2018-04-02T07:15:05.191Z,99.90
2018-04-02T07:17:32.792Z,99.90
2018-04-02T07:20:03.424Z,99.90
2018-04-02T07:22:33.136Z,99.90
2018-04-02T07:25:01.961Z,99.90
2018-04-02T07:27:29.661Z,99.90
2018-04-02T07:29:57.233Z,99.90
2018-04-02T07:32:24.709Z,99.90
2018-04-02T07:34:54.487Z,99.90
2018-04-02T07:37:23.725Z,99.90
2018-04-02T08:08:14.157Z,99.90
2018-04-02T08:11:03.188Z,99.90
2018-04-02T08:16:23.546Z,99.90
2018-04-02T08:21:41.290Z,99.90
2018-04-02T08:24:08.773Z,99.90
2018-04-02T08:26:37.011Z,99.90
2018-04-02T08:29:04.479Z,99.90
2018-04-02T08:31:31.949Z,99.90
2018-04-02T08:34:00.184Z,99.90
2018-04-02T08:36:27.662Z,99.90
2018-04-02T08:38:55.319Z,99.90
2018-04-02T08:44:20.022Z,99.90
2018-04-02T08:46:48.196Z,99.60
2018-04-02T08:49:15.707Z,99.50
2018-04-02T08:51:43.169Z,99.20
2018-04-02T08:54:10.657Z,99.30
2018-04-02T08:59:28.645Z,99.10
2018-04-02T09:01:56.127Z,99.20
2018-04-02T09:04:23.595Z,99.70
2018-04-02T09:06:51.132Z,99.90
2018-04-02T09:09:19.375Z,99.70
2018-04-02T09:11:47.134Z,99.70
2018-04-02T09:14:14.638Z,99.00
2018-04-02T09:16:42.114Z,99.20
2018-04-02T09:19:09.631Z,98.30
2018-04-02T09:21:37.110Z,98.00
2018-04-02T09:24:04.574Z,97.20
2018-04-02T09:26:32.151Z,97.20
2018-04-02T09:28:59.661Z,96.80
2018-04-02T09:31:27.135Z,96.00
2018-04-02T09:33:55.394Z,95.80
2018-04-02T09:36:23.625Z,95.90
2018-04-02T09:38:51.089Z,95.90
2018-04-02T09:41:19.002Z,96.00
2018-04-02T09:43:46.605Z,96.50
2018-04-02T09:46:14.110Z,96.00
2018-04-02T09:48:41.627Z,96.50
2018-04-02T09:51:09.182Z,96.90
2018-04-02T09:53:36.681Z,96.80
2018-04-02T09:56:04.171Z,97.00
2018-04-02T09:58:31.704Z,95.80
2018-04-02T10:01:01.107Z,96.30
2018-04-02T10:03:34.413Z,96.80
2018-04-02T10:06:02.023Z,97.20
2018-04-02T10:08:29.654Z,96.30
2018-04-02T10:10:57.106Z,96.60
2018-04-02T10:13:24.653Z,96.20
2018-04-02T10:15:52.967Z,96.40
2018-04-02T10:18:20.473Z,96.40
2018-04-02T10:20:48.339Z,95.80
2018-04-02T10:23:15.910Z,94.40
2018-04-02T10:25:45.475Z,94.90
2018-04-02T10:28:13.013Z,94.70
2018-04-02T10:30:40.705Z,93.50
2018-04-02T10:33:08.186Z,92.40
2018-04-02T10:35:35.686Z,91.20
2018-04-02T10:38:03.319Z,90.50
2018-04-02T10:40:30.938Z,90.70
2018-04-02T10:42:58.399Z,89.10
2018-04-02T10:45:25.893Z,88.60
2018-04-02T10:47:54.139Z,87.00
2018-04-02T10:50:21.657Z,86.90
2018-04-02T10:52:49.126Z,87.80
2018-04-02T10:55:16.598Z,86.60
2018-04-02T10:57:44.068Z,85.70
2018-04-02T11:00:11.544Z,82.70
2018-04-02T11:05:30.311Z,80.90
2018-04-02T11:08:12.498Z,80.80
2018-04-02T11:13:30.658Z,83.90
2018-04-02T11:15:58.140Z,81.10
2018-04-02T11:18:25.607Z,82.00
2018-04-02T11:20:53.103Z,80.70
2018-04-02T11:23:20.576Z,79.60
2018-04-02T11:25:48.029Z,81.10
2018-04-02T11:28:15.495Z,81.50
2018-04-02T11:30:43.003Z,79.60
2018-04-02T11:33:10.558Z,81.90
2018-04-02T11:35:38.038Z,83.10
2018-04-02T11:38:05.514Z,81.40
2018-04-02T11:40:32.974Z,81.00
2018-04-02T11:43:00.445Z,82.20
2018-04-02T11:45:29.266Z,78.90
2018-04-02T11:54:06.146Z,78.90
2018-04-02T11:56:33.692Z,78.70
2018-04-02T11:59:01.968Z,84.00
2018-04-02T12:01:29.432Z,84.00
2018-04-02T12:03:56.974Z,83.80
2018-04-02T12:06:25.164Z,81.00
2018-04-02T12:08:52.772Z,80.80
2018-04-02T12:11:20.315Z,81.10
2018-04-02T12:13:48.021Z,81.10
2018-04-02T12:16:15.544Z,80.40
2018-04-02T12:18:43.001Z,79.70
2018-04-02T12:21:11.678Z,76.90
2018-04-02T12:23:39.202Z,77.20
2018-04-02T12:26:06.677Z,74.60
2018-04-02T12:28:34.150Z,75.80
2018-04-02T12:31:02.384Z,77.20
2018-04-02T12:33:29.885Z,77.20
2018-04-02T12:35:58.135Z,75.80
2018-04-02T12:38:25.630Z,75.80
2018-04-02T12:40:53.893Z,75.20
2018-04-02T12:43:21.414Z,75.10
2018-04-02T12:45:49.280Z,74.00
2018-04-02T12:48:16.786Z,74.10
2018-04-02T12:50:44.282Z,74.80
2018-04-02T12:53:11.756Z,77.30
2018-04-02T12:55:39.214Z,78.20
2018-04-02T12:58:06.725Z,79.30
2018-04-02T13:00:34.209Z,78.70
2018-04-02T13:03:01.695Z,77.50
2018-04-02T13:05:29.258Z,76.20
2018-04-02T13:07:56.735Z,75.90
2018-04-02T13:10:24.208Z,76.00
2018-04-02T13:12:51.710Z,75.40
2018-04-02T13:15:19.186Z,74.40
2018-04-02T13:17:46.645Z,72.70
2018-04-02T13:20:14.130Z,73.60
2018-04-02T13:22:42.386Z,70.10
2018-04-02T13:25:09.843Z,70.10
2018-04-02T13:27:37.316Z,71.60
2018-04-02T13:30:04.848Z,70.50
2018-04-02T13:32:32.323Z,71.30
2018-04-02T13:34:59.806Z,71.00
2018-04-02T13:37:27.263Z,70.20
2018-04-02T13:39:54.717Z,70.00
2018-04-02T13:42:22.179Z,70.30
2018-04-02T13:44:49.625Z,68.10
2018-04-02T13:47:17.081Z,69.90
2018-04-02T13:49:44.546Z,67.00
2018-04-02T13:52:12.086Z,67.30
2018-04-02T13:54:40.311Z,67.10
2018-04-02T13:57:07.775Z,66.50
2018-04-02T13:59:35.236Z,66.60
2018-04-02T14:02:02.695Z,68.90
2018-04-02T14:04:30.185Z,69.80
2018-04-02T14:06:57.622Z,71.00
2018-04-02T14:09:25.372Z,66.70
2018-04-02T14:11:52.837Z,67.10
2018-04-02T14:14:20.284Z,66.30
2018-04-02T14:16:47.792Z,67.10
2018-04-02T14:19:15.282Z,66.30
2018-04-02T14:21:42.748Z,68.20
2018-04-02T14:24:10.223Z,66.90
2018-04-02T14:26:37.695Z,66.50
2018-04-02T14:29:05.182Z,65.90
2018-04-02T14:31:32.641Z,67.00
2018-04-02T14:34:00.116Z,67.20
2018-04-02T14:36:27.582Z,67.30
2018-04-02T14:38:55.085Z,65.30
2018-04-02T14:41:23.331Z,67.30
2018-04-02T14:43:50.796Z,67.30
2018-04-02T14:46:18.249Z,66.80
2018-04-02T14:48:45.707Z,66.90
2018-04-02T14:51:13.169Z,64.10
2018-04-02T14:53:40.644Z,63.00
2018-04-02T14:56:08.124Z,64.60
2018-04-02T14:58:35.587Z,65.60
2018-04-02T15:01:03.075Z,65.90
2018-04-02T15:03:32.021Z,65.90
2018-04-02T15:06:00.243Z,66.20
2018-04-02T15:08:27.715Z,66.20
2018-04-02T15:10:55.202Z,65.40
2018-04-02T15:13:22.659Z,66.30
2018-04-02T15:15:50.139Z,67.10
2018-04-02T15:18:17.625Z,68.80
2018-04-02T15:20:45.153Z,67.70
2018-04-02T15:23:12.619Z,69.00
2018-04-02T15:25:40.075Z,69.60
2018-04-02T15:28:07.558Z,69.40
2018-04-02T15:30:35.043Z,68.70
2018-04-02T15:33:02.519Z,69.80
2018-04-02T15:35:29.996Z,70.40
2018-04-02T15:37:57.483Z,70.10
2018-04-02T15:40:24.965Z,70.40
2018-04-02T15:42:52.454Z,69.60
2018-04-02T15:45:19.923Z,69.30
2018-04-02T15:47:47.410Z,69.90
2018-04-02T15:50:14.895Z,70.60
2018-04-02T15:52:42.352Z,71.60
2018-04-02T15:55:09.819Z,72.40
2018-04-02T15:57:37.353Z,72.20
2018-04-02T16:00:04.821Z,72.30
2018-04-02T16:02:32.291Z,71.80
2018-04-02T16:05:00.774Z,71.70
2018-04-02T16:07:28.271Z,71.60
2018-04-02T16:09:55.715Z,70.60
2018-04-02T16:12:23.174Z,71.60
2018-04-02T16:14:51.410Z,72.70
2018-04-02T16:17:18.887Z,72.70
2018-04-02T16:19:47.318Z,73.00
2018-04-02T16:22:14.767Z,72.90
2018-04-02T16:24:42.252Z,73.10
2018-04-02T16:27:09.711Z,72.00
2018-04-02T16:29:37.622Z,73.50
2018-04-02T16:32:05.125Z,73.80
2018-04-02T16:34:32.611Z,73.50
2018-04-02T16:37:00.161Z,74.20
2018-04-02T16:39:27.606Z,74.10
2018-04-02T16:41:55.203Z,74.10
2018-04-02T16:44:23.483Z,74.60
2018-04-02T16:46:51.783Z,76.50
2018-04-02T16:49:19.268Z,76.40
2018-04-02T16:51:46.842Z,77.40
2018-04-02T16:54:14.334Z,78.20
2018-04-02T16:56:42.583Z,79.40
2018-04-02T16:59:10.079Z,79.20
2018-04-02T17:01:37.552Z,80.10
2018-04-02T17:04:05.138Z,80.80
2018-04-02T17:06:32.637Z,80.70
2018-04-02T17:09:00.145Z,81.60
2018-04-02T17:11:27.678Z,82.40
2018-04-02T17:13:55.182Z,83.60
2018-04-02T17:16:22.656Z,83.50
2018-04-02T17:18:50.134Z,84.90
2018-04-02T17:21:17.628Z,85.70
2018-04-02T17:23:45.123Z,87.10
2018-04-02T17:26:12.631Z,88.00
2018-04-02T17:28:40.105Z,88.50
2018-04-02T17:31:07.635Z,89.40
2018-04-02T17:33:35.109Z,90.20
2018-04-02T17:36:02.564Z,90.50
2018-04-02T17:38:30.042Z,90.70
2018-04-02T17:40:57.509Z,90.20
2018-04-02T17:43:25.001Z,90.70
2018-04-02T17:45:53.242Z,90.90
2018-04-02T17:48:20.701Z,90.90
2018-04-02T17:50:48.182Z,91.00
2018-04-02T17:53:16.455Z,91.40
2018-04-02T17:55:43.919Z,91.40
2018-04-02T18:01:02.541Z,92.20
2018-04-02T18:03:30.004Z,92.20
2018-04-02T18:05:57.510Z,92.60
2018-04-02T18:08:24.984Z,93.10
2018-04-02T18:10:52.442Z,93.70
2018-04-02T18:13:19.969Z,94.30
2018-04-02T18:15:47.482Z,94.50
2018-04-02T18:18:14.998Z,94.90
2018-04-02T18:20:42.518Z,95.50
2018-04-02T18:23:10.053Z,95.70
2018-04-02T18:25:37.521Z,95.70
2018-04-02T18:28:04.982Z,95.70
2018-04-02T18:30:32.471Z,95.90
2018-04-02T18:32:59.928Z,95.90
2018-04-02T18:35:27.407Z,96.20
2018-04-02T18:37:54.943Z,96.40
2018-04-02T18:40:22.427Z,96.60
2018-04-02T18:42:49.927Z,96.90
2018-04-02T18:45:17.418Z,96.90
2018-04-02T18:47:44.865Z,97.20
2018-04-02T18:50:12.353Z,97.50
2018-04-02T18:52:40.726Z,98.40
2018-04-02T18:55:09.058Z,98.40
2018-04-02T18:57:36.555Z,98.40
2018-04-02T19:00:04.088Z,99.10
2018-04-02T19:02:31.542Z,99.00
2018-04-02T19:04:59.009Z,99.20
2018-04-02T19:07:26.482Z,99.70
2018-04-02T19:09:54.714Z,99.80
2018-04-02T19:12:22.228Z,99.80
2018-04-02T19:14:49.698Z,99.90
2018-04-02T19:17:17.323Z,99.90
2018-04-02T19:19:44.942Z,99.90
2018-04-02T19:22:13.293Z,99.90
2018-04-02T19:24:43.245Z,99.90
2018-04-02T19:27:10.858Z,99.90
2018-04-02T19:29:38.409Z,99.90
2018-04-02T19:32:06.100Z,99.90
2018-04-02T19:34:33.557Z,99.90
2018-04-02T19:37:01.146Z,99.90
2018-04-02T19:39:28.613Z,99.90
2018-04-02T19:41:56.116Z,99.90
2018-04-02T19:44:23.626Z,99.90
2018-04-02T19:46:51.094Z,99.90
2018-04-02T19:49:18.614Z,99.90
2018-04-02T19:51:46.122Z,99.90
2018-04-02T19:54:14.386Z,99.90
2018-04-02T19:56:41.879Z,99.90
2018-04-02T19:59:10.134Z,99.90
2018-04-02T20:01:39.005Z,99.90
2018-04-02T20:04:06.538Z,99.90
2018-04-02T20:06:34.027Z,99.90
2018-04-02T20:09:01.491Z,99.90
2018-04-02T20:11:28.954Z,99.90
2018-04-02T20:13:57.184Z,99.90
2018-04-02T20:16:24.668Z,99.90
2018-04-02T20:18:52.135Z,99.90
2018-04-02T20:21:19.594Z,99.90
2018-04-02T20:23:48.066Z,99.90
2018-04-02T20:26:15.586Z,99.90
2018-04-02T20:28:43.055Z,99.90
2018-04-02T20:31:10.537Z,99.90
2018-04-02T20:33:38.014Z,99.90
2018-04-02T20:36:05.483Z,99.90
2018-04-02T20:38:33.740Z,99.90
2018-04-02T20:41:01.198Z,99.90
2018-04-02T20:43:28.682Z,99.90
2018-04-02T20:45:56.141Z,99.90
2018-04-02T20:48:23.614Z,99.90
2018-04-02T20:50:51.085Z,99.90
2018-04-02T20:53:18.548Z,99.90
2018-04-02T20:55:46.610Z,99.90
2018-04-02T20:58:14.094Z,99.90
2018-04-02T21:00:41.570Z,99.90
2018-04-02T21:03:09.103Z,99.90
2018-04-02T21:05:36.584Z,99.90
2018-04-02T21:08:04.846Z,99.90
2018-04-02T21:10:32.332Z,99.90
2018-04-02T21:13:00.584Z,99.90
2018-04-02T21:15:28.055Z,99.90
2018-04-02T21:17:55.511Z,99.90
2018-04-02T21:20:22.979Z,99.90
2018-04-02T21:22:50.451Z,99.90
2018-04-02T21:25:17.979Z,99.90
2018-04-02T21:27:46.249Z,99.90
2018-04-02T21:30:13.719Z,99.90
2018-04-02T21:32:41.219Z,99.90
2018-04-02T21:35:08.705Z,99.90
2018-04-02T21:37:36.170Z,99.90
2018-04-02T21:40:03.636Z,99.90
2018-04-02T21:42:31.903Z,99.90
2018-04-02T21:44:59.387Z,99.90
2018-04-02T21:47:27.641Z,99.90
2018-04-02T21:49:55.104Z,99.90
2018-04-02T21:52:22.581Z,99.90
2018-04-02T21:54:50.806Z,99.90
2018-04-02T21:57:18.273Z,99.90
2018-04-02T21:59:45.762Z,99.90
2018-04-02T22:02:14.085Z,99.90
2018-04-02T22:04:41.564Z,99.90
2018-04-02T22:07:09.990Z,99.90
2018-04-02T22:09:37.470Z,99.90
2018-04-02T22:12:04.956Z,99.90
2018-04-02T22:14:32.440Z,99.90
2018-04-02T22:16:59.941Z,99.90
2018-04-02T22:19:27.416Z,99.90
2018-04-02T22:21:54.918Z,99.90
2018-04-02T22:24:23.167Z,99.90
2018-04-02T22:26:50.647Z,99.90
2018-04-02T22:29:18.900Z,99.90
2018-04-02T22:31:46.382Z,99.90
2018-04-02T22:34:13.842Z,99.90
2018-04-02T22:36:41.322Z,99.90
2018-04-02T22:39:08.784Z,99.90
2018-04-02T22:41:36.283Z,99.90
2018-04-02T22:44:03.764Z,99.90
2018-04-02T22:46:32.075Z,99.90
2018-04-02T22:48:59.547Z,99.90
2018-04-02T22:51:27.050Z,99.90
2018-04-02T22:53:54.563Z,99.90
2018-04-02T22:56:22.031Z,99.90
2018-04-02T22:58:49.488Z,99.90
2018-04-02T23:01:16.959Z,99.90
2018-04-02T23:03:44.426Z,99.90
2018-04-02T23:06:11.905Z,99.90
2018-04-02T23:08:40.145Z,99.90
2018-04-02T23:11:07.639Z,99.90
2018-04-02T23:13:36.024Z,99.90
2018-04-02T23:16:03.534Z,99.90
2018-04-02T23:18:31.243Z,99.90
2018-04-02T23:20:59.489Z,99.90
2018-04-02T23:23:26.950Z,99.90
2018-04-02T23:25:54.425Z,99.90
2018-04-02T23:28:21.883Z,99.90
2018-04-02T23:30:49.358Z,99.90
2018-04-02T23:33:16.816Z,99.90
2018-04-02T23:35:44.266Z,99.90
2018-04-02T23:38:11.728Z,99.90
2018-04-02T23:40:39.245Z,99.90
2018-04-02T23:43:06.710Z,99.90
2018-04-02T23:45:34.165Z,99.90
2018-04-02T23:48:01.709Z,99.90
2018-04-02T23:50:29.135Z,99.90
2018-04-02T23:52:56.606Z,99.90
2018-04-02T23:55:24.094Z,99.90
2018-04-02T23:57:51.614Z,99.90
